createdAt,value
2023-03-23T15:59:55.781Z,15.17
2023-03-23T16:02:25.330Z,15.16
2023-03-23T16:04:52.438Z,15.14
2023-03-23T16:07:22.427Z,15.12
2023-03-23T16:09:49.072Z,15.08
2023-03-23T16:12:15.724Z,15.08
2023-03-23T16:14:42.411Z,15.07
2023-03-23T16:17:15.870Z,15.06
2023-03-23T16:19:42.533Z,15.02
2023-03-23T16:22:09.916Z,15.01
2023-03-23T16:24:36.663Z,15.01
2023-03-23T16:27:03.283Z,14.98
2023-03-23T16:32:01.440Z,14.94
2023-03-23T16:34:30.155Z,14.95
2023-03-23T16:36:56.822Z,14.94
2023-03-23T16:39:23.751Z,14.94
2023-03-23T16:41:50.651Z,14.89
2023-03-23T16:44:17.360Z,14.88
2023-03-23T16:46:44.345Z,14.85
2023-03-23T16:49:11.128Z,14.79
2023-03-23T16:51:37.930Z,14.77
2023-03-23T16:54:04.699Z,14.78
2023-03-23T16:56:31.389Z,14.77
2023-03-23T16:58:58.095Z,14.72
2023-03-23T17:01:24.750Z,14.67
2023-03-23T17:03:51.525Z,14.65
2023-03-23T17:06:18.213Z,14.62
2023-03-23T17:08:44.866Z,14.50
2023-03-23T17:11:11.577Z,14.54
2023-03-23T17:13:38.478Z,14.52
2023-03-23T17:16:05.760Z,14.42
2023-03-23T17:18:32.500Z,14.44
2023-03-23T17:20:59.179Z,14.37
2023-03-23T17:23:26.177Z,14.41
2023-03-23T17:25:53.913Z,14.39
2023-03-23T17:28:21.123Z,14.29
2023-03-23T17:30:48.516Z,14.24
2023-03-23T17:33:15.414Z,14.24
2023-03-23T17:35:42.698Z,14.26
2023-03-23T17:38:09.763Z,14.22
2023-03-23T17:40:36.697Z,14.23
2023-03-23T17:43:04.085Z,14.19
2023-03-23T17:45:30.974Z,14.18
2023-03-23T17:47:57.666Z,14.19
2023-03-23T17:50:24.416Z,14.14
2023-03-23T17:52:51.135Z,14.13
2023-03-23T17:55:17.776Z,14.07
2023-03-23T17:57:44.976Z,14.10
2023-03-23T18:00:13.296Z,14.07
2023-03-23T18:02:40.031Z,14.05
2023-03-23T18:05:09.386Z,14.02
2023-03-23T18:07:37.022Z,13.97
2023-03-23T18:10:11.829Z,14.01
2023-03-23T18:12:40.149Z,13.96
2023-03-23T18:15:07.387Z,13.93
2023-03-23T18:17:34.125Z,13.88
2023-03-23T18:20:01.420Z,13.93
2023-03-23T18:22:28.065Z,13.90
2023-03-23T18:24:55.399Z,13.84
2023-03-23T18:27:22.015Z,13.83
2023-03-23T18:29:48.666Z,13.83
2023-03-23T18:32:17.119Z,13.83
2023-03-23T18:34:43.906Z,13.85
2023-03-23T18:37:10.869Z,13.78
2023-03-23T18:39:38.539Z,13.81
2023-03-23T18:42:06.294Z,13.85
2023-03-23T18:44:33.313Z,13.83
2023-03-23T18:47:00.597Z,13.77
2023-03-23T18:49:29.026Z,13.75
2023-03-23T18:51:56.109Z,13.73
2023-03-23T18:54:22.755Z,13.69
2023-03-23T18:56:49.494Z,13.71
2023-03-23T18:59:16.311Z,13.64
2023-03-23T19:01:43.417Z,13.60
2023-03-23T19:04:14.602Z,13.64
2023-03-23T19:06:41.413Z,13.65
2023-03-23T19:09:08.056Z,13.63
2023-03-23T19:11:34.685Z,13.59
2023-03-23T19:14:03.399Z,13.60
2023-03-23T19:16:35.948Z,13.58
2023-03-23T19:19:05.347Z,13.58
2023-03-23T19:21:32.597Z,13.54
2023-03-23T19:24:00.893Z,13.56
2023-03-23T19:26:36.895Z,13.58
2023-03-23T19:29:26.150Z,13.51
2023-03-23T19:31:55.556Z,13.51
2023-03-23T19:34:23.796Z,13.54
2023-03-23T19:36:55.237Z,13.52
2023-03-23T19:39:30.186Z,13.54
2023-03-23T19:41:56.858Z,13.53
2023-03-23T19:44:23.545Z,13.52
2023-03-23T19:46:50.718Z,13.50
2023-03-23T19:49:17.892Z,13.48
2023-03-23T19:51:44.963Z,13.48
2023-03-23T19:54:13.200Z,13.46
2023-03-23T19:56:40.164Z,13.46
2023-03-23T19:59:10.579Z,13.48
2023-03-23T20:01:37.786Z,13.40
2023-03-23T20:04:05.545Z,13.47
2023-03-23T20:06:34.047Z,13.44
2023-03-23T20:09:01.351Z,13.41
2023-03-23T20:11:29.671Z,13.41
2023-03-23T20:13:57.699Z,13.44
2023-03-23T20:16:25.350Z,13.44
2023-03-23T20:18:53.418Z,13.33
2023-03-23T20:21:25.401Z,13.41
2023-03-23T20:23:55.917Z,13.41
2023-03-23T20:26:28.814Z,13.36
2023-03-23T20:28:56.049Z,13.37
2023-03-23T20:31:26.749Z,13.38
2023-03-23T20:34:02.051Z,13.35
2023-03-23T20:36:35.167Z,13.33
2023-03-23T20:39:08.236Z,13.34
2023-03-23T20:41:38.841Z,13.30
2023-03-23T20:44:08.032Z,13.30
2023-03-23T20:46:35.348Z,13.26
2023-03-23T20:49:02.565Z,13.27
2023-03-23T20:51:29.208Z,13.25
2023-03-23T20:53:55.852Z,13.24
2023-03-23T20:56:22.510Z,13.24
2023-03-23T20:58:49.242Z,13.24
2023-03-23T21:01:16.009Z,13.24
2023-03-23T21:03:44.026Z,13.18
2023-03-23T21:06:10.855Z,13.18
2023-03-23T21:08:39.516Z,13.16
2023-03-23T21:11:09.246Z,13.13
2023-03-23T21:13:36.838Z,13.08
2023-03-23T21:16:04.293Z,13.12
2023-03-23T21:18:31.757Z,13.05
2023-03-23T21:21:00.285Z,13.07
2023-03-23T21:23:30.474Z,13.03
2023-03-23T21:26:02.764Z,12.97
2023-03-23T21:28:30.765Z,12.92
2023-03-23T21:31:06.042Z,12.87
2023-03-23T21:33:33.183Z,12.87
2023-03-23T21:36:01.002Z,12.82
2023-03-23T21:38:28.622Z,12.81
2023-03-23T21:40:58.523Z,12.76
2023-03-23T21:43:29.794Z,12.70
2023-03-23T21:45:58.951Z,12.65
2023-03-23T21:48:27.543Z,12.65
2023-03-23T21:50:54.884Z,12.63
2023-03-23T21:53:23.223Z,12.68
2023-03-23T21:55:54.623Z,12.55
2023-03-23T21:58:24.213Z,12.63
2023-03-23T22:00:54.119Z,12.59
2023-03-23T22:03:23.570Z,12.65
2023-03-23T22:05:54.190Z,12.69
2023-03-23T22:08:22.617Z,12.73
2023-03-23T22:11:01.387Z,12.69
2023-03-23T22:13:31.169Z,12.52
2023-03-23T22:15:59.384Z,12.36
2023-03-23T22:18:26.660Z,12.33
2023-03-23T22:20:53.822Z,12.24
2023-03-23T22:23:20.774Z,12.22
2023-03-23T22:25:47.569Z,12.14
2023-03-23T22:28:14.716Z,12.09
2023-03-23T22:30:41.327Z,12.02
2023-03-23T22:33:08.257Z,11.91
2023-03-23T22:35:35.040Z,11.91
2023-03-23T22:38:03.768Z,11.88
2023-03-23T22:40:32.942Z,11.87
2023-03-23T22:43:06.718Z,11.82
2023-03-23T22:45:35.128Z,11.79
2023-03-23T22:48:08.627Z,11.77
2023-03-23T22:50:39.350Z,11.77
2023-03-23T22:53:07.836Z,11.76
2023-03-23T22:55:36.701Z,11.80
2023-03-23T22:58:05.089Z,11.80
2023-03-23T23:01:25.745Z,11.75
2023-03-23T23:04:29.804Z,11.56
2023-03-23T23:07:11.999Z,11.27
2023-03-23T23:09:45.560Z,11.36
2023-03-23T23:12:15.566Z,11.24
2023-03-23T23:14:44.347Z,11.16
2023-03-23T23:17:13.006Z,11.15
2023-03-23T23:19:41.059Z,11.15
2023-03-23T23:22:31.987Z,11.16
2023-03-23T23:25:00.420Z,11.15
2023-03-23T23:27:45.951Z,11.17
2023-03-23T23:30:37.967Z,11.12
2023-03-23T23:33:08.083Z,11.15
2023-03-23T23:35:37.268Z,11.17
2023-03-23T23:38:15.994Z,11.24
2023-03-23T23:40:46.920Z,11.23
2023-03-23T23:43:17.350Z,11.33
2023-03-23T23:45:45.833Z,11.33
2023-03-23T23:48:14.484Z,11.42
2023-03-23T23:50:43.423Z,11.45
2023-03-23T23:53:35.527Z,11.53
2023-03-23T23:56:08.299Z,11.60
2023-03-23T23:58:36.030Z,11.58
